Time;durP1;ratioP1;P1;durP2;ratioP2;P2;SDS_P1;SDS_P2;PMS_P1;PMS_P2;Temp;Humidity;BMP_temperature;BMP_pressure;BME280_temperature;BME280_humidity;BME280_pressure;Samples;Min_cycle;Max_cycle;Signal;HPM_P1;HPM_P2
2023/10/26 00:04:42;;;;;;;9.02;4.10;;;;;;;12.77;77.87;99948.53;10450899;28;20052;-63
2023/10/26 00:09:43;;;;;;;12.27;4.65;;;;;;;12.87;77.72;99928.72;10450363;28;20041;-62
2023/10/26 00:14:44;;;;;;;8.95;4.63;;;;;;;12.90;77.19;99912.34;10450649;28;20082;-62
2023/10/26 00:19:45;;;;;;;10.20;4.32;;;;;;;12.81;77.25;99838.88;10449979;28;20056;-63
2023/10/26 00:24:46;;;;;;;11.18;4.43;;;;;;;12.97;77.00;99831.38;10449730;28;20040;-64
2023/10/26 00:29:47;;;;;;;11.82;4.60;;;;;;;13.07;76.63;99839.00;10450471;28;20029;-63
2023/10/26 00:34:48;;;;;;;12.75;5.20;;;;;;;13.04;76.53;99812.75;10449444;28;20065;-63
2023/10/26 00:39:48;;;;;;;7.25;5.05;;;;;;;13.02;75.96;99809.47;10449796;28;20496;-63
2023/10/26 00:44:51;;;;;;;11.38;5.18;;;;;;;13.36;76.06;99895.84;10449229;28;20128;-63
2023/10/26 00:49:53;;;;;;;8.50;4.68;;;;;;;13.39;76.38;99943.47;10449407;28;20058;-63
2023/10/26 00:54:54;;;;;;;6.93;4.65;;;;;;;13.30;76.19;99955.31;10447612;28;20101;-63
2023/10/26 00:59:54;;;;;;;9.30;4.70;;;;;;;13.21;76.40;99987.44;10449916;28;20044;-63
2023/10/26 01:04:55;;;;;;;12.20;5.18;;;;;;;13.07;77.20;99942.19;10448595;28;20056;-63
2023/10/26 01:09:57;;;;;;;6.97;4.05;;;;;;;12.89;77.70;99969.31;10448637;28;20039;-62
2023/10/26 01:14:59;;;;;;;21.80;5.30;;;;;;;12.75;77.92;99985.22;10447481;28;20048;-63
2023/10/26 01:20:00;;;;;;;10.73;4.88;;;;;;;12.63;78.30;99980.59;10448703;28;20117;-63
2023/10/26 01:25:00;;;;;;;21.13;7.55;;;;;;;12.64;78.97;99967.06;10448598;28;20124;-63
2023/10/26 01:30:02;;;;;;;20.95;8.00;;;;;;;12.61;79.19;99939.97;10447779;28;20052;-65
2023/10/26 01:35:03;;;;;;;10.85;6.68;;;;;;;12.78;79.55;99944.03;10448720;28;20139;-63
2023/10/26 01:40:06;;;;;;;12.30;6.57;;;;;;;12.78;79.58;99923.53;10448894;28;20052;-63
2023/10/26 01:45:08;;;;;;;9.52;6.50;;;;;;;12.73;80.30;99891.28;10456118;28;20404;-63
2023/10/26 01:50:09;;;;;;;8.85;5.60;;;;;;;12.66;80.26;99889.59;10453612;28;20040;-63
2023/10/26 01:55:10;;;;;;;12.05;5.88;;;;;;;12.54;79.75;99850.16;10454361;28;20045;-63
2023/10/26 02:00:11;;;;;;;13.98;6.68;;;;;;;12.82;80.40;99875.16;10453798;28;20102;-63
2023/10/26 02:05:12;;;;;;;11.73;7.07;;;;;;;12.94;80.48;99889.59;10454333;28;20036;-63
2023/10/26 02:10:14;;;;;;;18.58;8.20;;;;;;;12.98;81.65;99862.38;10454049;28;20135;-63
2023/10/26 02:15:15;;;;;;;14.68;8.43;;;;;;;13.11;82.15;99850.97;10453407;28;20103;-65
2023/10/26 02:20:16;;;;;;;13.13;8.60;;;;;;;13.18;82.61;99818.97;10453729;28;20072;-63
2023/10/26 02:25:17;;;;;;;11.20;8.20;;;;;;;13.19;82.46;99808.13;10452084;28;20045;-63
2023/10/26 02:30:18;;;;;;;12.90;8.70;;;;;;;13.09;83.43;99773.00;10453099;28;20037;-63
2023/10/26 02:35:20;;;;;;;14.88;9.60;;;;;;;13.06;83.69;99764.56;10451883;28;20053;-63
2023/10/26 02:40:21;;;;;;;15.55;9.02;;;;;;;13.11;84.10;99760.28;10454129;28;20037;-63
2023/10/26 02:45:22;;;;;;;19.75;10.60;;;;;;;13.14;84.22;99759.88;10453087;28;20512;-63
2023/10/26 02:50:23;;;;;;;21.02;9.75;;;;;;;12.88;84.76;99731.25;10452796;28;20037;-63
2023/10/26 02:55:24;;;;;;;14.55;9.77;;;;;;;13.09;84.65;99780.16;10451468;28;20510;-63
2023/10/26 03:00:25;;;;;;;16.08;10.30;;;;;;;13.13;84.75;99819.59;10453628;28;20124;-63
2023/10/26 03:05:26;;;;;;;15.10;10.27;;;;;;;13.12;85.41;99863.25;10453014;28;20116;-63
2023/10/26 03:10:28;;;;;;;14.57;9.57;;;;;;;13.09;85.52;99873.50;10452816;28;20033;-63
2023/10/26 03:15:28;;;;;;;24.75;10.40;;;;;;;13.05;86.08;99842.91;10453006;28;20041;-62
2023/10/26 03:20:31;;;;;;;24.73;11.27;;;;;;;12.98;87.09;99837.53;10451546;28;20041;-62
2023/10/26 03:25:32;;;;;;;21.27;11.13;;;;;;;12.71;86.54;99801.88;10451876;28;20041;-62
2023/10/26 03:30:33;;;;;;;31.08;12.60;;;;;;;13.00;87.49;99832.84;10447335;28;20068;-64
2023/10/26 03:35:35;;;;;;;28.52;12.52;;;;;;;12.48;87.70;99711.59;10449963;28;20049;-64
2023/10/26 03:40:36;;;;;;;42.47;12.32;;;;;;;12.80;88.16;99760.72;10450548;28;20045;-62
2023/10/26 03:45:36;;;;;;;29.85;12.82;;;;;;;13.16;88.12;99816.53;10449238;28;20045;-62
2023/10/26 03:50:37;;;;;;;22.17;12.27;;;;;;;13.21;88.68;99808.72;10451426;28;20041;-62
2023/10/26 03:55:38;;;;;;;22.75;11.63;;;;;;;13.21;89.03;99800.72;10451185;28;20070;-64
2023/10/26 04:00:39;;;;;;;19.40;12.63;;;;;;;13.24;89.16;99811.00;10451401;28;20045;-63
2023/10/26 04:05:40;;;;;;;27.15;15.48;;;;;;;13.31;89.23;99835.09;10449994;28;20120;-63
2023/10/26 04:10:44;;;;;;;23.55;12.82;;;;;;;13.24;90.53;99808.34;10450632;28;20456;-64
2023/10/26 04:15:45;;;;;;;22.67;13.32;;;;;;;13.32;89.30;99817.25;10449804;28;20045;-63
2023/10/26 04:20:46;;;;;;;25.02;15.15;;;;;;;13.41;89.63;99824.06;10450498;28;20056;-63
2023/10/26 04:25:48;;;;;;;23.27;15.82;;;;;;;13.50;90.03;99804.19;10450000;28;20391;-66
2023/10/26 04:30:49;;;;;;;29.15;16.08;;;;;;;13.61;89.97;99808.09;10449907;28;20036;-63
2023/10/26 04:35:51;;;;;;;26.73;15.43;;;;;;;13.50;89.43;99740.13;10450014;28;20151;-63
2023/10/26 04:40:52;;;;;;;22.20;15.73;;;;;;;13.83;88.54;99753.53;10447337;28;20052;-63
2023/10/26 04:45:53;;;;;;;23.95;15.90;;;;;;;14.54;87.71;99809.06;10448768;28;20060;-62
2023/10/26 04:50:54;;;;;;;32.25;14.82;;;;;;;14.84;86.78;99824.66;10448335;28;20173;-63
2023/10/26 04:55:54;;;;;;;29.52;18.25;;;;;;;14.60;86.25;99732.59;10448358;28;20051;-63
2023/10/26 05:00:55;;;;;;;30.65;16.77;;;;;;;15.03;86.02;99770.28;10448814;28;20072;-62
2023/10/26 05:05:56;;;;;;;25.55;15.13;;;;;;;14.99;85.53;99749.53;10449475;28;20041;-62
2023/10/26 05:10:56;;;;;;;20.35;14.27;;;;;;;15.76;83.66;99798.59;10448763;28;20041;-63
2023/10/26 05:15:57;;;;;;;24.67;13.55;;;;;;;16.07;82.45;99805.81;10448189;28;20072;-62
2023/10/26 05:20:59;;;;;;;29.20;13.45;;;;;;;16.19;81.86;99776.47;10448743;28;20048;-62
2023/10/26 05:26:01;;;;;;;30.25;12.35;;;;;;;16.52;80.93;99781.53;10447855;28;20044;-63
2023/10/26 05:31:01;;;;;;;21.10;12.18;;;;;;;17.06;79.00;99789.91;10448147;28;20037;-66
2023/10/26 05:36:03;;;;;;;22.95;11.73;;;;;;;17.03;78.03;99769.69;10447597;28;20061;-61
2023/10/26 05:41:06;;;;;;;21.40;12.13;;;;;;;17.45;77.12;99801.19;10448127;28;20093;-62
2023/10/26 05:46:06;;;;;;;24.25;11.25;;;;;;;17.68;75.31;99776.28;10448628;28;20093;-63
2023/10/26 05:51:07;;;;;;;25.50;10.57;;;;;;;17.97;73.99;99780.03;10447663;28;20068;-63
2023/10/26 05:56:08;;;;;;;21.10;11.10;;;;;;;17.89;73.51;99762.38;10447905;28;20044;-62
2023/10/26 06:01:09;;;;;;;32.15;11.18;;;;;;;18.11;72.40;99737.66;10447091;28;20040;-64
2023/10/26 06:06:10;;;;;;;19.67;10.35;;;;;;;18.20;72.23;99766.63;10448030;28;20043;-63
2023/10/26 06:11:12;;;;;;;20.60;10.05;;;;;;;18.29;71.72;99753.69;10447468;28;20045;-63
2023/10/26 06:16:15;;;;;;;23.80;10.32;;;;;;;18.56;70.37;99692.16;10447512;28;20111;-63
2023/10/26 06:21:16;;;;;;;21.13;9.93;;;;;;;19.11;69.20;99760.88;10447140;28;20075;-64
2023/10/26 06:26:16;;;;;;;22.83;9.65;;;;;;;18.97;68.85;99738.00;10446857;28;20072;-63
2023/10/26 06:31:18;;;;;;;15.52;9.18;;;;;;;19.22;67.39;99729.59;10452803;28;20041;-64
2023/10/26 06:36:18;;;;;;;39.70;8.90;;;;;;;19.37;66.55;99751.44;10453996;28;20139;-64
2023/10/26 06:41:19;;;;;;;16.02;8.52;;;;;;;19.54;66.00;99790.00;10453584;28;20474;-63
2023/10/26 06:46:20;;;;;;;29.23;7.82;;;;;;;19.56;65.68;99793.28;10453110;28;20059;-63
2023/10/26 06:51:22;;;;;;;19.38;8.63;;;;;;;19.92;64.48;99793.94;10452885;28;20048;-62
2023/10/26 06:56:23;;;;;;;16.42;7.60;;;;;;;20.06;63.61;99764.81;10452604;28;20040;-63
2023/10/26 07:01:23;;;;;;;17.70;7.57;;;;;;;19.96;62.95;99673.81;10453890;28;20403;-62
2023/10/26 07:06:24;;;;;;;12.18;6.40;;;;;;;20.38;61.34;99703.00;10452296;28;20044;-63
2023/10/26 07:11:25;;;;;;;12.70;6.60;;;;;;;20.51;60.29;99702.66;10452733;28;20045;-63
2023/10/26 07:16:26;;;;;;;10.40;5.85;;;;;;;20.84;59.36;99722.53;10452250;28;20081;-63
2023/10/26 07:21:27;;;;;;;9.73;5.60;;;;;;;21.19;57.99;99692.44;10452788;28;20484;-62
2023/10/26 07:26:27;;;;;;;23.13;4.72;;;;;;;21.46;55.73;99677.34;10451665;28;20040;-64
2023/10/26 07:31:28;;;;;;;10.50;4.68;;;;;;;21.49;55.10;99668.72;10452221;28;20044;-63
2023/10/26 07:36:30;;;;;;;15.05;5.28;;;;;;;21.46;54.44;99663.84;10451390;28;20057;-63
2023/10/26 07:41:31;;;;;;;11.75;3.75;;;;;;;21.56;53.03;99663.91;10451543;28;20135;-64
2023/10/26 07:46:31;;;;;;;15.35;4.32;;;;;;;21.64;52.14;99636.44;10451657;28;20127;-64
2023/10/26 07:51:32;;;;;;;15.45;3.88;;;;;;;22.05;51.32;99680.00;10451619;28;20100;-63
2023/10/26 07:56:33;;;;;;;10.30;3.97;;;;;;;22.13;50.96;99670.56;10451465;28;20045;-64
2023/10/26 08:01:34;;;;;;;16.00;3.85;;;;;;;21.98;50.51;99611.78;10450903;28;20037;-65
2023/10/26 08:06:35;;;;;;;13.80;3.95;;;;;;;22.26;50.55;99667.47;10450732;28;20393;-63
2023/10/26 08:11:37;;;;;;;16.63;4.25;;;;;;;22.16;50.94;99657.34;10450314;28;20066;-64
2023/10/26 08:16:39;;;;;;;22.15;4.65;;;;;;;21.83;51.10;99667.38;10450932;28;20204;-63
2023/10/26 08:21:40;;;;;;;16.83;4.43;;;;;;;21.33;51.87;99592.91;10450619;28;20484;-63
2023/10/26 08:26:40;;;;;;;9.98;3.80;;;;;;;21.47;51.92;99635.72;10451186;28;20045;-63
2023/10/26 08:31:41;;;;;;;21.52;7.75;;;;;;;21.13;52.20;99595.44;10450236;28;20040;-63
2023/10/26 08:36:42;;;;;;;31.67;4.93;;;;;;;21.43;52.21;99633.56;10450533;28;20064;-63
2023/10/26 08:41:54;;;;;;;26.90;5.22;;;;;;;21.23;51.52;99579.31;10450090;28;20136;-63
2023/10/26 08:47:01;;;;;;;32.95;4.90;;;;;;;21.68;51.20;99615.91;10449281;28;20413;-63
2023/10/26 08:52:03;;;;;;;12.93;4.35;;;;;;;21.56;51.59;99566.63;10449140;28;20136;-65
2023/10/26 08:57:07;;;;;;;12.52;4.07;;;;;;;21.84;51.40;99606.84;10448989;28;20041;-63
2023/10/26 09:02:08;;;;;;;11.48;3.80;;;;;;;21.90;50.93;99575.25;10448717;28;20102;-63
2023/10/26 09:07:09;;;;;;;18.52;4.32;;;;;;;22.05;50.94;99588.06;10448557;28;20040;-63
2023/10/26 09:12:10;;;;;;;8.15;4.00;;;;;;;22.09;50.92;99571.03;10449038;28;20468;-63
2023/10/26 09:17:25;;;;;;;18.02;4.43;;;;;;;22.02;50.19;99512.84;10448584;28;20048;-63
2023/10/26 09:22:36;;;;;;;16.98;4.35;;;;;;;22.76;49.25;99587.53;10449371;28;20043;-63
2023/10/26 09:27:41;;;;;;;13.98;3.78;;;;;;;23.15;49.27;99579.78;10448401;28;20045;-63
2023/10/26 09:32:42;;;;;;;15.00;3.88;;;;;;;23.27;48.29;99576.81;10448571;28;20037;-63
2023/10/26 09:37:52;;;;;;;20.15;3.95;;;;;;;23.52;47.77;99578.72;10448729;28;20057;-63
2023/10/26 09:42:56;;;;;;;9.05;4.35;;;;;;;23.57;47.53;99554.34;10448809;28;20077;-63
2023/10/26 09:47:59;;;;;;;13.75;4.82;;;;;;;23.35;47.03;99516.66;10447681;28;20045;-64
2023/10/26 09:53:00;;;;;;;12.43;4.30;;;;;;;23.71;47.01;99583.63;10448501;28;20096;-64
2023/10/26 09:58:05;;;;;;;21.00;4.80;;;;;;;23.44;47.17;99552.16;10447739;28;20077;-63
2023/10/26 10:03:16;;;;;;;16.95;4.65;;;;;;;23.36;46.78;99567.09;10449591;28;20435;-63
2023/10/26 10:08:55;;;;;;;20.20;5.15;;;;;;;23.53;47.13;99576.81;10454395;28;20504;-63
2023/10/26 10:13:55;;;;;;;12.23;4.25;;;;;;;23.52;47.38;99578.72;10454303;28;20045;-64
2023/10/26 10:19:16;;;;;;;11.43;4.32;;;;;;;23.79;46.62;99577.66;10454659;28;20485;-63
2023/10/26 10:24:44;;;;;;;17.55;3.83;;;;;;;23.78;45.79;99554.31;10453718;28;20041;-64
2023/10/26 10:29:45;;;;;;;13.65;4.15;;;;;;;23.59;46.73;99556.75;10453997;28;20454;-64
2023/10/26 10:34:46;;;;;;;14.23;4.63;;;;;;;23.62;46.80;99564.34;10454290;28;20523;-64
2023/10/26 10:40:15;;;;;;;9.23;3.58;;;;;;;23.47;45.08;99554.31;10453716;28;20048;-63
2023/10/26 10:45:17;;;;;;;8.07;3.53;;;;;;;22.98;46.64;99504.22;10453564;28;20095;-64
2023/10/26 10:50:23;;;;;;;19.90;5.00;;;;;;;23.20;46.50;99557.31;10453423;28;20079;-63
2023/10/26 10:55:28;;;;;;;14.55;3.90;;;;;;;23.16;46.49;99556.25;10452671;28;20105;-64
2023/10/26 11:00:46;;;;;;;12.80;4.30;;;;;;;23.06;46.76;99540.78;10453820;28;20045;-64
2023/10/26 11:05:48;;;;;;;15.13;4.00;;;;;;;22.98;47.38;99544.84;10453538;28;20091;-64
2023/10/26 11:10:49;;;;;;;19.58;5.15;;;;;;;22.58;47.80;99490.59;10453874;28;20045;-63
2023/10/26 11:15:50;;;;;;;25.65;4.80;;;;;;;22.60;47.87;99494.66;10452750;28;20120;-63
2023/10/26 11:20:51;;;;;;;18.55;4.93;;;;;;;22.76;48.29;99536.09;10452729;28;20555;-63
2023/10/26 11:25:51;;;;;;;29.33;4.50;;;;;;;22.66;48.39;99506.31;10452210;28;20109;-64
2023/10/26 11:30:57;;;;;;;16.45;4.88;;;;;;;22.90;48.56;99537.22;10453351;28;20097;-63
2023/10/26 11:35:58;;;;;;;8.52;4.60;;;;;;;22.91;48.51;99546.94;10451984;28;20583;-64
2023/10/26 11:40:59;;;;;;;7.22;4.53;;;;;;;22.77;48.80;99538.56;10452402;28;20072;-63
2023/10/26 11:46:04;;;;;;;11.75;5.10;;;;;;;22.64;49.91;99541.75;10451784;28;20041;-63
2023/10/26 11:51:06;;;;;;;8.77;4.45;;;;;;;22.45;50.06;99535.22;10451045;28;20037;-64
2023/10/26 11:56:07;;;;;;;19.33;5.10;;;;;;;22.39;50.04;99533.56;10451209;28;20044;-63
2023/10/26 12:01:08;;;;;;;34.30;11.88;;;;;;;22.31;50.20;99535.69;10450645;28;20066;-64
2023/10/26 12:06:11;;;;;;;11.85;5.35;;;;;;;22.26;50.21;99554.63;10451125;28;20041;-64
2023/10/26 12:11:11;;;;;;;29.37;10.93;;;;;;;21.96;50.65;99530.13;10450955;28;20037;-63
2023/10/26 12:16:12;;;;;;;40.67;12.48;;;;;;;22.03;50.96;99560.44;10450831;28;20045;-63
2023/10/26 12:21:13;;;;;;;40.15;21.00;;;;;;;21.86;51.45;99561.41;10450028;28;20041;-63
2023/10/26 12:26:14;;;;;;;27.05;12.90;;;;;;;21.33;51.94;99500.22;10448738;28;20041;-63
2023/10/26 12:31:14;;;;;;;80.00;31.27;;;;;;;21.54;52.64;99568.78;10450204;28;20647;-63
2023/10/26 12:36:16;;;;;;;24.75;13.43;;;;;;;21.41;52.91;99565.44;10448477;28;20063;-65
2023/10/26 12:41:16;;;;;;;26.75;8.63;;;;;;;21.33;53.51;99578.56;10446427;28;20041;-64
2023/10/26 12:46:17;;;;;;;30.17;12.20;;;;;;;21.22;53.70;99599.28;10449699;28;20041;-63
2023/10/26 12:51:18;;;;;;;19.02;8.68;;;;;;;21.11;54.24;99608.38;10448944;28;20033;-63
2023/10/26 12:56:19;;;;;;;23.45;7.72;;;;;;;21.00;54.81;99633.63;10449602;28;20519;-63
2023/10/26 13:01:19;;;;;;;24.48;10.95;;;;;;;20.44;55.57;99593.31;10450001;28;20037;-63
2023/10/26 13:06:20;;;;;;;70.32;39.05;;;;;;;20.78;56.16;99696.56;10448501;28;20048;-63
2023/10/26 13:11:21;;;;;;;40.13;17.05;;;;;;;20.69;56.50;99708.84;10445549;28;20408;-63
2023/10/26 13:16:23;;;;;;;42.65;14.88;;;;;;;20.60;57.65;99727.34;10447797;28;20528;-63
2023/10/26 13:21:23;;;;;;;51.92;14.23;;;;;;;20.45;59.53;99735.22;10447955;28;20044;-66
2023/10/26 13:26:24;;;;;;;119.63;16.67;;;;;;;20.34;60.75;99749.59;10440807;28;20040;-65
2023/10/26 13:31:25;;;;;;;32.17;9.70;;;;;;;20.19;60.72;99769.91;10442419;28;20045;-63
2023/10/26 13:36:26;;;;;;;76.85;24.48;;;;;;;20.11;61.43;99793.75;10438958;28;20147;-64
2023/10/26 13:41:27;;;;;;;114.05;36.50;;;;;;;19.98;62.21;99781.38;10442858;28;20411;-64
2023/10/26 13:46:41;;;;;;;96.97;47.10;;;;;;;19.64;63.14;99758.94;10446755;28;20484;-63
2023/10/26 13:51:42;;;;;;;95.97;30.83;;;;;;;19.75;63.23;99782.34;10447429;28;20048;-63
2023/10/26 13:56:43;;;;;;;123.28;31.08;;;;;;;19.72;63.34;99793.59;10447145;28;20048;-63
2023/10/26 14:01:43;;;;;;;169.85;46.00;;;;;;;19.51;64.03;99774.34;10448275;28;20517;-63
2023/10/26 14:06:44;;;;;;;181.77;49.28;;;;;;;19.44;64.96;99767.44;10448328;28;20044;-65
2023/10/26 14:11:45;;;;;;;183.00;47.53;;;;;;;19.20;66.75;99762.13;10432047;28;20063;-64
2023/10/26 14:16:46;;;;;;;240.18;48.13;;;;;;;19.07;70.25;99784.75;10441926;28;20407;-64
2023/10/26 14:21:47;;;;;;;128.68;49.53;;;;;;;18.90;71.01;99784.66;10446881;28;20135;-64
2023/10/26 14:26:48;;;;;;;141.07;55.50;;;;;;;18.61;75.62;99794.50;10447054;28;20113;-64
2023/10/26 14:31:48;;;;;;;116.53;46.35;;;;;;;18.05;78.69;99722.44;10447125;28;20087;-63
2023/10/26 14:36:49;;;;;;;99.80;38.88;;;;;;;18.09;79.60;99756.69;10445952;28;20580;-63
2023/10/26 14:41:50;;;;;;;87.40;35.00;;;;;;;17.84;78.44;99705.00;10446120;28;20033;-64
2023/10/26 14:46:51;;;;;;;94.72;35.30;;;;;;;18.08;77.34;99736.25;10446314;28;20033;-63
2023/10/26 14:51:52;;;;;;;66.63;34.55;;;;;;;18.13;77.38;99752.50;10453336;28;20045;-63
2023/10/26 14:56:52;;;;;;;77.38;37.85;;;;;;;18.20;77.63;99760.44;10452647;28;20043;-65
2023/10/26 15:01:53;;;;;;;88.88;39.95;;;;;;;17.91;78.74;99737.97;10453784;28;20041;-62
2023/10/26 15:06:54;;;;;;;85.50;34.63;;;;;;;18.14;79.70;99775.63;10453233;28;20082;-63
2023/10/26 15:11:56;;;;;;;77.53;34.47;;;;;;;18.09;80.15;99791.63;10452507;28;20157;-63
2023/10/26 15:16:56;;;;;;;79.50;32.40;;;;;;;18.03;80.93;99803.28;10451270;28;20064;-63
2023/10/26 15:21:57;;;;;;;73.95;30.42;;;;;;;17.97;80.71;99812.28;10449247;28;20045;-63
2023/10/26 15:26:58;;;;;;;81.63;33.47;;;;;;;17.88;81.29;99784.09;10452446;28;20048;-63
2023/10/26 15:31:59;;;;;;;85.28;33.65;;;;;;;17.85;82.14;99779.19;10452246;28;20033;-63
2023/10/26 15:37:00;;;;;;;103.20;29.83;;;;;;;17.74;82.82;99752.03;10451198;28;20061;-64
2023/10/26 15:42:01;;;;;;;117.78;44.75;;;;;;;17.79;82.92;99752.19;10450756;28;20441;-65
2023/10/26 15:47:02;;;;;;;114.10;47.13;;;;;;;17.88;82.33;99759.91;10450249;28;20033;-63
2023/10/26 15:52:03;;;;;;;95.72;39.45;;;;;;;17.86;82.25;99773.59;10451013;28;20037;-65
2023/10/26 15:57:04;;;;;;;83.97;36.58;;;;;;;17.94;81.47;99778.63;10451216;28;20053;-62
2023/10/26 16:02:06;;;;;;;62.67;22.92;;;;;;;17.96;80.43;99764.97;10446336;28;20074;-62
2023/10/26 16:07:07;;;;;;;47.00;20.95;;;;;;;17.88;79.72;99749.97;10450175;28;20073;-64
2023/10/26 16:12:08;;;;;;;44.35;19.83;;;;;;;18.01;80.02;99767.78;10450552;28;20065;-63
2023/10/26 16:17:09;;;;;;;51.50;22.30;;;;;;;17.96;81.06;99778.41;10451260;28;20041;-65
2023/10/26 16:22:10;;;;;;;52.00;20.52;;;;;;;17.84;80.98;99761.44;10450957;28;20446;-63
2023/10/26 16:27:11;;;;;;;43.83;20.20;;;;;;;17.94;80.64;99783.19;10450803;28;20403;-63
2023/10/26 16:32:13;;;;;;;50.20;22.52;;;;;;;17.90;81.26;99790.88;10434309;28;20043;-63
2023/10/26 16:37:14;;;;;;;49.30;23.02;;;;;;;17.87;81.03;99769.84;10427034;28;20049;-63
2023/10/26 16:42:15;;;;;;;45.78;21.52;;;;;;;17.81;81.41;99764.59;10438150;28;20037;-64
2023/10/26 16:47:16;;;;;;;47.83;21.63;;;;;;;17.51;81.45;99736.66;10436740;28;20070;-63
2023/10/26 16:52:17;;;;;;;49.55;27.85;;;;;;;17.72;81.09;99762.19;10429002;28;20036;-64
2023/10/26 16:57:17;;;;;;;53.50;23.55;;;;;;;17.78;81.47;99768.53;10431639;28;20399;-66
2023/10/26 17:02:18;;;;;;;123.40;69.25;;;;;;;17.44;81.15;99719.84;10428020;28;20045;-65
2023/10/26 17:07:24;;;;;;;66.05;33.72;;;;;;;17.40;82.11;99720.50;10425532;28;20040;-62
2023/10/26 17:12:24;;;;;;;96.97;51.50;;;;;;;17.62;82.42;99775.34;10431028;28;20110;-64
2023/10/26 17:17:26;;;;;;;77.07;40.65;;;;;;;17.38;83.84;99768.22;10427561;28;20072;-63
2023/10/26 17:22:26;;;;;;;84.63;41.83;;;;;;;17.16;84.58;99766.03;10434396;28;20098;-63
2023/10/26 17:27:27;;;;;;;66.28;33.65;;;;;;;16.95;85.20;99769.97;10425683;28;20085;-63
2023/10/26 17:32:34;;;;;;;76.53;33.15;;;;;;;16.86;85.92;99769.47;10445977;28;20052;-63
2023/10/26 17:37:35;;;;;;;59.33;26.90;;;;;;;16.65;86.71;99767.19;10445113;28;20060;-64
2023/10/26 17:42:37;;;;;;;53.03;26.42;;;;;;;16.28;87.12;99737.63;10447314;28;20059;-65
2023/10/26 17:47:38;;;;;;;57.80;25.92;;;;;;;16.59;87.09;99787.66;10447144;28;20377;-64
2023/10/26 17:52:39;;;;;;;52.05;25.42;;;;;;;16.63;87.84;99796.91;10446185;28;20045;-62
2023/10/26 17:57:40;;;;;;;49.45;23.67;;;;;;;16.54;88.09;99786.66;10445659;28;20044;-64
2023/10/26 18:02:41;;;;;;;41.78;19.10;;;;;;;16.64;88.01;99793.19;10447226;28;20495;-64
2023/10/26 18:07:43;;;;;;;49.38;20.35;;;;;;;16.55;88.34;99777.59;10447220;28;20033;-64
2023/10/26 18:12:46;;;;;;;36.42;16.42;;;;;;;16.63;86.84;99764.72;10446595;28;20045;-62
2023/10/26 18:17:47;;;;;;;47.13;19.98;;;;;;;16.62;87.10;99767.63;10447060;28;20066;-63
2023/10/26 18:22:48;;;;;;;31.73;14.40;;;;;;;16.67;86.06;99792.75;10448050;28;20455;-63
2023/10/26 18:27:49;;;;;;;29.50;13.57;;;;;;;16.50;86.02;99748.75;10452488;28;20139;-64
2023/10/26 18:32:50;;;;;;;35.67;11.68;;;;;;;16.43;85.88;99762.22;10453860;28;20045;-63
2023/10/26 18:37:55;;;;;;;27.00;11.00;;;;;;;16.49;86.40;99776.63;10453107;28;20057;-63
2023/10/26 18:42:56;;;;;;;25.67;10.07;;;;;;;16.46;85.95;99782.44;10453717;28;20049;-64
2023/10/26 18:47:57;;;;;;;35.53;10.55;;;;;;;16.57;85.30;99788.91;10453451;28;20036;-64
2023/10/26 18:53:00;;;;;;;18.83;9.45;;;;;;;16.41;85.46;99766.16;10454532;28;20079;-63
2023/10/26 18:58:01;;;;;;;35.67;10.07;;;;;;;16.23;85.30;99731.28;10452194;28;20139;-64
2023/10/26 19:03:02;;;;;;;24.02;8.15;;;;;;;16.54;85.11;99781.31;10453255;28;20140;-63
2023/10/26 19:08:07;;;;;;;23.85;8.85;;;;;;;16.12;86.19;99725.63;10451405;28;20091;-63
2023/10/26 19:13:09;;;;;;;23.05;9.55;;;;;;;16.48;85.59;99801.78;10452800;28;20072;-63
2023/10/26 19:18:10;;;;;;;29.50;8.98;;;;;;;16.42;85.10;99782.06;10450714;28;20115;-63
2023/10/26 19:23:11;;;;;;;21.90;9.15;;;;;;;16.51;85.09;99798.69;10452669;28;20133;-63
2023/10/26 19:28:12;;;;;;;19.40;9.25;;;;;;;16.56;85.15;99798.81;10451093;28;20043;-63
2023/10/26 19:33:13;;;;;;;30.70;9.75;;;;;;;16.53;85.54;99807.31;10452785;28;20399;-63
2023/10/26 19:38:15;;;;;;;20.80;9.50;;;;;;;16.14;85.81;99766.41;10451124;28;20056;-63
2023/10/26 19:43:16;;;;;;;25.90;11.15;;;;;;;16.20;86.01;99800.34;10451296;28;20456;-63
2023/10/26 19:48:17;;;;;;;17.80;10.15;;;;;;;16.16;86.38;99804.53;10451650;28;20036;-63
2023/10/26 19:53:18;;;;;;;17.50;9.93;;;;;;;16.00;86.76;99812.25;10450485;28;20496;-64
2023/10/26 19:58:18;;;;;;;17.83;10.63;;;;;;;15.87;87.50;99802.44;10450765;28;20417;-64
2023/10/26 20:03:19;;;;;;;23.60;10.30;;;;;;;15.70;87.90;99778.03;10451876;28;20052;-62
2023/10/26 20:08:20;;;;;;;26.17;10.70;;;;;;;15.67;88.00;99791.81;10450608;28;20408;-62
2023/10/26 20:13:21;;;;;;;34.50;11.38;;;;;;;15.67;88.83;99790.00;10450982;28;20078;-62
2023/10/26 20:18:22;;;;;;;31.75;11.63;;;;;;;15.35;89.17;99748.16;10450087;28;20037;-65
2023/10/26 20:23:23;;;;;;;35.13;15.52;;;;;;;15.77;88.88;99788.72;10450640;28;20048;-63
2023/10/26 20:28:24;;;;;;;40.88;14.80;;;;;;;15.80;88.36;99789.13;10450883;28;20045;-62
2023/10/26 20:33:24;;;;;;;31.90;14.70;;;;;;;15.77;88.81;99796.75;10450593;28;20513;-64
2023/10/26 20:38:26;;;;;;;25.35;13.23;;;;;;;15.26;89.45;99775.16;10448131;28;20591;-63
2023/10/26 20:43:27;;;;;;;26.10;15.20;;;;;;;15.17;89.65;99771.06;10449697;28;20090;-62
2023/10/26 20:48:32;;;;;;;23.20;12.52;;;;;;;15.28;90.27;99813.19;10448781;28;20137;-62
2023/10/26 20:53:33;;;;;;;30.35;12.90;;;;;;;15.19;90.81;99809.13;10449496;28;20037;-62
2023/10/26 20:58:34;;;;;;;33.67;13.25;;;;;;;15.12;91.21;99821.72;10449997;28;20452;-62
2023/10/26 21:03:35;;;;;;;30.70;12.90;;;;;;;14.87;91.49;99810.88;10447784;28;20041;-63
2023/10/26 21:08:37;;;;;;;26.80;14.02;;;;;;;14.59;91.88;99801.22;10446347;28;20492;-62
2023/10/26 21:13:38;;;;;;;21.85;13.30;;;;;;;14.51;92.75;99824.66;10448347;28;20045;-62
2023/10/26 21:18:38;;;;;;;22.25;12.90;;;;;;;14.22;93.28;99826.72;10448860;28;20131;-62
2023/10/26 21:23:39;;;;;;;24.80;13.45;;;;;;;13.97;94.25;99830.97;10447612;28;20037;-62
2023/10/26 21:28:41;;;;;;;56.25;26.98;;;;;;;13.88;94.58;99812.50;10448715;28;20049;-62
2023/10/26 21:33:42;;;;;;;45.17;23.05;;;;;;;13.61;94.61;99773.41;10447790;28;20086;-63
2023/10/26 21:38:43;;;;;;;65.28;31.35;;;;;;;13.68;95.16;99815.09;10447785;28;20048;-63
2023/10/26 21:43:43;;;;;;;53.50;28.88;;;;;;;13.65;95.40;99812.84;10447521;28;20045;-64
2023/10/26 21:48:44;;;;;;;49.20;24.52;;;;;;;13.50;95.62;99804.19;10447973;28;20037;-64
2023/10/26 21:53:45;;;;;;;45.78;23.20;;;;;;;13.18;95.78;99753.13;10447805;28;20077;-64
2023/10/26 21:58:46;;;;;;;37.50;18.52;;;;;;;13.37;96.49;99788.09;10450186;28;20100;-64
2023/10/26 22:03:47;;;;;;;28.08;16.45;;;;;;;13.33;96.64;99797.53;10455233;28;20045;-63
2023/10/26 22:08:47;;;;;;;31.13;14.80;;;;;;;13.39;96.79;99810.91;10455145;28;20479;-65
2023/10/26 22:13:48;;;;;;;43.80;16.45;;;;;;;13.36;96.43;99813.16;10454746;28;20053;-63
2023/10/26 22:18:49;;;;;;;26.33;15.50;;;;;;;13.32;96.46;99820.72;10454096;28;20045;-63
2023/10/26 22:23:51;;;;;;;32.13;15.25;;;;;;;13.13;97.05;99819.59;10453100;28;20500;-64
2023/10/26 22:28:51;;;;;;;24.67;12.90;;;;;;;12.99;96.76;99833.88;10454132;28;20047;-64
2023/10/26 22:33:52;;;;;;;24.38;12.57;;;;;;;12.87;98.00;99835.44;10454331;28;20148;-64
2023/10/26 22:38:55;;;;;;;19.98;11.70;;;;;;;12.82;98.80;99821.84;10452165;28;20041;-64
2023/10/26 22:43:56;;;;;;;23.10;11.73;;;;;;;12.57;98.77;99780.50;10451564;28;20492;-63
2023/10/26 22:48:57;;;;;;;21.33;11.27;;;;;;;12.74;98.97;99823.66;10454175;28;20044;-64
2023/10/26 22:53:58;;;;;;;26.75;11.32;;;;;;;12.71;98.81;99816.06;10453558;28;20045;-64
2023/10/26 22:58:58;;;;;;;31.85;11.55;;;;;;;12.74;99.09;99826.34;10452608;28;20113;-64